Time;durP1;ratioP1;P1;durP2;ratioP2;P2;SDS_P1;SDS_P2;PMS_P1;PMS_P2;Temp;Humidity;BMP_temperature;BMP_pressure;BME280_temperature;BME280_humidity;BME280_pressure;Samples;Min_cycle;Max_cycle;Signal;HPM_P1;HPM_P2
2023/03/24 00:01:03;;;;;;;9.07;5.25;;;15.00;59.90;;;;;;5057365;28;20029;-64
2023/03/24 00:03:30;;;;;;;7.38;5.10;;;15.00;59.90;;;;;;5060171;28;20473;-64
2023/03/24 00:06:00;;;;;;;5.65;4.85;;;14.90;59.90;;;;;;5063749;28;20028;-64
2023/03/24 00:08:29;;;;;;;7.60;4.60;;;15.00;60.00;;;;;;5056995;28;20029;-63
2023/03/24 00:11:05;;;;;;;5.97;4.35;;;14.90;59.90;;;;;;5068686;28;20099;-64
2023/03/24 00:13:37;;;;;;;8.00;4.10;;;14.90;60.30;;;;;;5055441;28;20078;-64
2023/03/24 00:16:08;;;;;;;9.10;4.32;;;14.90;59.90;;;;;;5047411;28;20040;-63
2023/03/24 00:18:35;;;;;;;5.55;4.10;;;14.90;59.90;;;;;;5055970;28;20028;-65
2023/03/24 00:21:02;;;;;;;5.05;4.03;;;14.90;59.90;;;;;;5059280;28;20021;-65
2023/03/24 00:23:31;;;;;;;5.35;3.90;;;14.90;60.00;;;;;;5058578;28;20518;-64
2023/03/24 00:26:07;;;;;;;7.03;4.60;;;14.90;60.10;;;;;;5064005;28;20036;-63
2023/03/24 00:28:35;;;;;;;5.40;4.25;;;14.90;60.60;;;;;;5059578;28;20056;-63
2023/03/24 00:31:03;;;;;;;8.07;4.35;;;14.90;60.20;;;;;;5059165;28;20413;-64
2023/03/24 00:33:31;;;;;;;7.78;4.40;;;14.90;60.00;;;;;;5059654;28;20033;-63
2023/03/24 00:35:58;;;;;;;10.27;5.82;;;14.90;59.90;;;;;;5054299;28;20112;-65
2023/03/24 00:38:25;;;;;;;16.10;8.13;;;14.80;59.70;;;;;;5052007;28;20491;-64
2023/03/24 00:40:52;;;;;;;15.68;8.13;;;14.90;59.50;;;;;;5053010;28;20033;-63
2023/03/24 00:43:18;;;;;;;15.38;7.65;;;14.80;59.30;;;;;;5065179;28;20525;-64
2023/03/24 00:45:46;;;;;;;15.32;7.20;;;14.80;59.40;;;;;;5064926;28;20514;-65
2023/03/24 00:48:19;;;;;;;14.65;7.22;;;14.80;59.40;;;;;;5064501;28;20054;-63
2023/03/24 00:50:49;;;;;;;10.52;6.93;;;14.80;59.40;;;;;;5051971;28;20048;-65
2023/03/24 00:53:16;;;;;;;8.55;6.00;;;14.80;60.10;;;;;;5058998;28;20032;-64
2023/03/24 00:55:49;;;;;;;11.27;6.47;;;14.80;59.40;;;;;;5060989;28;20039;-64
2023/03/24 00:58:17;;;;;;;11.30;6.50;;;14.90;59.60;;;;;;5061571;28;20033;-65
2023/03/24 01:00:45;;;;;;;9.02;5.93;;;14.90;59.90;;;;;;5061927;28;20639;-64
2023/03/24 01:03:11;;;;;;;8.10;5.60;;;14.80;60.00;;;;;;5066808;28;20029;-64
2023/03/24 01:05:37;;;;;;;9.60;5.10;;;14.90;60.40;;;;;;5058827;28;20028;-64
2023/03/24 01:08:05;;;;;;;6.88;4.85;;;14.90;60.50;;;;;;5062394;28;20031;-64
2023/03/24 01:10:33;;;;;;;5.57;4.43;;;14.90;60.70;;;;;;5063284;28;20036;-63
2023/03/24 01:13:00;;;;;;;7.25;4.65;;;14.90;60.80;;;;;;5060308;28;20391;-64
2023/03/24 01:15:32;;;;;;;7.53;5.15;;;14.90;60.80;;;;;;5053163;28;20033;-65
2023/03/24 01:18:01;;;;;;;10.32;5.15;;;14.80;60.90;;;;;;5052104;28;20057;-64
2023/03/24 01:20:31;;;;;;;9.38;5.28;;;14.80;60.80;;;;;;5062683;28;20032;-63
2023/03/24 01:22:58;;;;;;;7.75;5.38;;;14.80;61.10;;;;;;5059340;28;20056;-64
2023/03/24 01:25:24;;;;;;;8.30;5.72;;;14.80;61.10;;;;;;5055607;28;20054;-63
2023/03/24 01:27:51;;;;;;;10.20;5.85;;;14.80;61.10;;;;;;5059412;28;20422;-64
2023/03/24 01:30:24;;;;;;;9.95;5.50;;;14.80;61.30;;;;;;5058151;28;20025;-64
2023/03/24 01:32:51;;;;;;;8.27;5.80;;;14.70;61.50;;;;;;5054607;28;20729;-64
2023/03/24 01:35:17;;;;;;;8.13;5.57;;;14.70;61.60;;;;;;5056158;28;20053;-63
2023/03/24 01:37:42;;;;;;;8.45;5.30;;;14.70;61.60;;;;;;5065030;28;20043;-63
2023/03/24 01:40:10;;;;;;;8.30;5.40;;;14.70;61.80;;;;;;5054883;28;20033;-63
2023/03/24 01:42:38;;;;;;;7.35;5.18;;;14.70;62.00;;;;;;5054043;28;20021;-65
2023/03/24 01:45:38;;;;;;;9.23;5.50;;;14.70;62.20;;;;;;5063098;28;20088;-65
2023/03/24 01:48:11;;;;;;;8.40;5.93;;;14.70;62.90;;;;;;5059171;28;20059;-64
2023/03/24 01:50:38;;;;;;;12.50;5.75;;;14.70;62.00;;;;;;5060855;28;20096;-64
2023/03/24 01:53:04;;;;;;;7.97;5.47;;;14.70;61.90;;;;;;5059846;28;20051;-63
2023/03/24 01:55:30;;;;;;;10.55;6.50;;;14.70;61.90;;;;;;5060485;28;20056;-65
2023/03/24 01:57:59;;;;;;;13.43;6.72;;;14.70;62.00;;;;;;5062208;28;20025;-64
2023/03/24 02:00:26;;;;;;;10.73;6.47;;;14.70;62.00;;;;;;5051417;28;20026;-64
2023/03/24 02:02:57;;;;;;;9.10;5.97;;;14.70;62.00;;;;;;5061965;28;20017;-65
2023/03/24 02:05:27;;;;;;;8.77;5.85;;;14.70;62.30;;;;;;5046100;28;20120;-65
2023/03/24 02:08:17;;;;;;;7.78;5.50;;;14.60;62.30;;;;;;5057691;28;20117;-64
2023/03/24 02:10:43;;;;;;;9.02;5.57;;;14.60;63.10;;;;;;5054754;28;20017;-64
2023/03/24 02:13:10;;;;;;;11.35;4.97;;;14.60;62.10;;;;;;5085136;28;20110;-64
2023/03/24 02:15:47;;;;;;;9.05;5.65;;;14.60;62.20;;;;;;5063820;28;20028;-64
2023/03/24 02:18:37;;;;;;;9.35;5.75;;;14.60;62.60;;;;;;5069052;28;20021;-64
2023/03/24 02:21:24;;;;;;;6.43;5.00;;;14.60;62.90;;;;;;5062608;28;20021;-64
2023/03/24 02:24:28;;;;;;;8.65;5.22;;;14.60;62.50;;;;;;5055371;28;20017;-64
2023/03/24 02:27:12;;;;;;;8.15;4.82;;;14.60;62.60;;;;;;5063556;28;20049;-64
2023/03/24 02:30:15;;;;;;;7.13;5.15;;;14.50;62.00;;;;;;5061341;28;20088;-65
2023/03/24 02:32:46;;;;;;;13.25;4.70;;;14.50;62.40;;;;;;5059108;28;20029;-65
2023/03/24 02:35:28;;;;;;;9.60;4.85;;;14.50;61.80;;;;;;5058951;28;20048;-64
2023/03/24 02:38:14;;;;;;;9.85;4.78;;;14.40;62.30;;;;;;5059659;28;20032;-64
2023/03/24 02:40:44;;;;;;;6.78;4.75;;;14.40;61.90;;;;;;4982993;28;20094;-64
2023/03/24 02:43:21;;;;;;;4.93;4.40;;;14.40;61.70;;;;;;5058819;28;20117;-65
2023/03/24 02:46:13;;;;;;;25.55;4.97;;;14.40;62.30;;;;;;5054162;28;20025;-65
2023/03/24 02:48:48;;;;;;;7.20;4.90;;;14.30;62.20;;;;;;5062216;28;20045;-65
2023/03/24 02:51:31;;;;;;;7.22;5.20;;;14.30;62.10;;;;;;5059039;28;20056;-64
2023/03/24 02:54:27;;;;;;;5.82;5.10;;;14.30;62.20;;;;;;5067761;28;20029;-63
2023/03/24 02:57:03;;;;;;;9.15;4.97;;;14.30;62.20;;;;;;5054962;28;20030;-63
2023/03/24 02:59:55;;;;;;;6.82;4.90;;;14.30;61.90;;;;;;5059553;28;20381;-63
2023/03/24 03:02:27;;;;;;;8.07;5.65;;;14.30;62.10;;;;;;5065465;28;20023;-64
2023/03/24 03:04:57;;;;;;;9.13;5.28;;;14.30;61.80;;;;;;5054407;28;20024;-64
2023/03/24 03:07:25;;;;;;;7.55;5.55;;;14.30;61.60;;;;;;5070502;28;20016;-64
2023/03/24 03:09:58;;;;;;;9.85;5.70;;;14.30;61.70;;;;;;5059578;28;20068;-65
2023/03/24 03:12:29;;;;;;;9.40;5.63;;;14.30;61.80;;;;;;5070971;28;20112;-64
2023/03/24 03:15:00;;;;;;;8.00;5.40;;;14.30;61.70;;;;;;5054738;28;20032;-64
2023/03/24 03:17:35;;;;;;;8.25;5.88;;;14.20;61.70;;;;;;5064263;28;20075;-65
2023/03/24 03:20:13;;;;;;;9.25;5.68;;;14.20;61.90;;;;;;5060513;28;20059;-64
2023/03/24 03:22:45;;;;;;;9.07;5.07;;;14.20;62.00;;;;;;5057408;28;20028;-64
2023/03/24 03:25:15;;;;;;;10.75;5.97;;;14.20;61.90;;;;;;5050116;28;20109;-64
2023/03/24 03:27:45;;;;;;;7.78;5.15;;;14.20;61.70;;;;;;5061616;28;20025;-65
2023/03/24 03:30:14;;;;;;;10.18;5.53;;;14.20;61.80;;;;;;5060816;28;20040;-64
2023/03/24 03:32:44;;;;;;;7.10;4.93;;;14.20;61.70;;;;;;5060153;28;20089;-64
2023/03/24 03:35:18;;;;;;;7.68;5.32;;;14.20;61.80;;;;;;5060565;28;20069;-65
2023/03/24 03:37:51;;;;;;;8.70;5.70;;;14.20;62.10;;;;;;5057470;28;20095;-65
2023/03/24 03:40:22;;;;;;;7.72;5.45;;;14.20;62.10;;;;;;5058943;28;20092;-65
2023/03/24 03:42:48;;;;;;;7.85;5.45;;;14.20;62.30;;;;;;5061214;28;20144;-65
2023/03/24 03:45:13;;;;;;;8.27;5.53;;;14.20;62.10;;;;;;5068938;28;20553;-65
2023/03/24 03:47:40;;;;;;;7.50;5.05;;;14.20;62.30;;;;;;5052500;28;20021;-63
2023/03/24 03:50:07;;;;;;;9.23;4.85;;;14.20;62.30;;;;;;5062158;28;20037;-63
2023/03/24 03:52:38;;;;;;;9.52;4.90;;;14.20;62.30;;;;;;5058117;28;20021;-65
2023/03/24 03:55:05;;;;;;;9.27;5.35;;;14.20;62.30;;;;;;5059849;28;20115;-64
2023/03/24 03:57:32;;;;;;;9.70;5.18;;;14.20;62.30;;;;;;5053997;28;20039;-63
2023/03/24 04:00:10;;;;;;;8.50;5.20;;;14.20;62.50;;;;;;5065590;28;20036;-63
2023/03/24 04:03:06;;;;;;;8.63;5.38;;;14.20;62.80;;;;;;5055854;28;20064;-63
2023/03/24 04:05:37;;;;;;;7.95;5.03;;;14.20;63.50;;;;;;5056220;28;20029;-63
2023/03/24 04:08:11;;;;;;;11.23;5.65;;;14.20;62.90;;;;;;5066071;28;20017;-63
2023/03/24 04:11:26;;;;;;;11.10;5.78;;;14.20;63.70;;;;;;5058523;28;20025;-63
2023/03/24 04:14:11;;;;;;;10.52;5.28;;;14.20;63.60;;;;;;5062188;28;20021;-64
2023/03/24 04:17:04;;;;;;;10.90;4.88;;;14.20;62.70;;;;;;5067151;28;20024;-63
2023/03/24 04:20:04;;;;;;;7.57;4.75;;;14.10;63.30;;;;;;5064751;28;20076;-64
2023/03/24 04:22:45;;;;;;;7.80;4.85;;;14.10;63.30;;;;;;5056874;28;20012;-62
2023/03/24 04:25:30;;;;;;;8.10;4.63;;;14.20;63.70;;;;;;5060738;28;20068;-63
2023/03/24 04:28:01;;;;;;;;;;;14.10;63.60;;;;;;5059168;28;20071;-63
2023/03/24 04:30:41;;;;;;;7.00;4.40;;;14.00;63.00;;;;;;5066562;28;19936;-63
2023/03/24 04:33:16;;;;;;;6.60;4.47;;;14.10;63.40;;;;;;5057890;28;20044;-65
2023/03/24 04:35:48;;;;;;;8.65;4.90;;;14.10;63.40;;;;;;5062566;28;20044;-64
2023/03/24 04:38:24;;;;;;;5.93;4.53;;;14.10;63.20;;;;;;5066653;28;20031;-64
2023/03/24 04:40:54;;;;;;;6.47;4.43;;;14.10;63.20;;;;;;4955238;28;20025;-64
2023/03/24 04:43:23;;;;;;;8.90;4.47;;;14.10;62.90;;;;;;5061149;28;20021;-64
2023/03/24 04:45:51;;;;;;;7.85;4.82;;;14.10;62.90;;;;;;5061577;28;20036;-65
2023/03/24 04:48:17;;;;;;;8.48;4.18;;;14.10;62.80;;;;;;5059461;28;20032;-64
2023/03/24 04:51:07;;;;;;;6.70;4.30;;;14.10;62.80;;;;;;5060218;28;20029;-64
2023/03/24 04:53:33;;;;;;;5.78;4.00;;;14.10;62.90;;;;;;5060934;28;20084;-65
2023/03/24 04:56:35;;;;;;;5.95;3.78;;;14.10;62.70;;;;;;5061888;28;20029;-64
2023/03/24 04:59:01;;;;;;;4.85;3.47;;;14.10;63.20;;;;;;5056044;28;20165;-64
2023/03/24 05:01:29;;;;;;;4.25;3.13;;;14.10;62.70;;;;;;5052042;28;20475;-64
2023/03/24 05:03:57;;;;;;;8.93;3.20;;;14.20;62.70;;;;;;5056018;28;20092;-65
2023/03/24 05:06:23;;;;;;;5.15;3.10;;;14.20;62.70;;;;;;5058969;28;20079;-64
2023/03/24 05:08:51;;;;;;;7.10;3.30;;;14.20;62.80;;;;;;5067373;28;20033;-64
2023/03/24 05:11:17;;;;;;;4.38;3.55;;;14.20;62.90;;;;;;5064344;28;20025;-63
2023/03/24 05:13:43;;;;;;;5.95;3.35;;;14.30;63.00;;;;;;5063912;28;20034;-64
2023/03/24 05:16:09;;;;;;;6.85;3.10;;;14.30;63.20;;;;;;5064142;28;20025;-63
2023/03/24 05:18:36;;;;;;;5.75;3.15;;;14.30;63.40;;;;;;5060744;28;20056;-64
2023/03/24 05:21:01;;;;;;;3.65;2.80;;;14.30;63.40;;;;;;5059030;28;20120;-64
2023/03/24 05:23:27;;;;;;;4.10;3.20;;;14.30;63.60;;;;;;5059656;28;20408;-64
2023/03/24 05:25:52;;;;;;;5.10;3.38;;;14.30;63.80;;;;;;5054909;28;20426;-63
2023/03/24 05:28:18;;;;;;;5.30;3.63;;;14.30;63.90;;;;;;5061107;28;20389;-64
2023/03/24 05:30:44;;;;;;;5.07;3.58;;;14.30;63.90;;;;;;5065126;28;20035;-63
2023/03/24 05:33:09;;;;;;;4.32;3.60;;;14.30;64.00;;;;;;5059389;28;20032;-63
2023/03/24 05:35:35;;;;;;;5.35;3.50;;;14.30;64.00;;;;;;5060265;28;20144;-65
2023/03/24 05:38:01;;;;;;;5.47;3.60;;;14.30;64.10;;;;;;5062669;28;20017;-65
2023/03/24 05:40:26;;;;;;;5.25;3.65;;;14.30;64.10;;;;;;5069488;28;20092;-64
2023/03/24 05:42:52;;;;;;;4.50;3.30;;;14.30;64.20;;;;;;5063123;28;20052;-65
2023/03/24 05:45:18;;;;;;;8.20;3.58;;;14.30;64.20;;;;;;5060412;28;20012;-64
2023/03/24 05:47:45;;;;;;;6.28;3.17;;;14.30;64.30;;;;;;5062540;28;20023;-64
2023/03/24 05:50:11;;;;;;;5.88;3.17;;;14.30;64.40;;;;;;5058159;28;20041;-64
2023/03/24 05:52:37;;;;;;;5.05;3.00;;;14.40;64.30;;;;;;5052783;28;20025;-64
2023/03/24 05:55:02;;;;;;;4.90;3.08;;;14.40;64.30;;;;;;5069547;28;20027;-64
2023/03/24 05:57:29;;;;;;;10.32;5.30;;;14.30;64.20;;;;;;5056062;28;20029;-64
2023/03/24 05:59:55;;;;;;;7.78;4.90;;;14.40;64.30;;;;;;5053587;28;20028;-65
2023/03/24 06:02:22;;;;;;;6.30;4.70;;;14.40;64.40;;;;;;5054832;28;20026;-64
2023/03/24 06:04:47;;;;;;;5.60;4.05;;;14.40;64.50;;;;;;5065120;28;20063;-64
2023/03/24 06:07:13;;;;;;;5.50;3.28;;;14.40;64.40;;;;;;5064817;28;20032;-64
2023/03/24 06:09:41;;;;;;;5.40;3.40;;;14.40;64.30;;;;;;5056302;28;20033;-64
2023/03/24 06:12:07;;;;;;;4.28;2.78;;;14.40;64.30;;;;;;5057631;28;20055;-64
2023/03/24 06:14:33;;;;;;;4.53;2.83;;;14.40;64.40;;;;;;5057258;28;20043;-65
2023/03/24 06:16:59;;;;;;;3.60;2.80;;;14.50;64.40;;;;;;5055472;28;20491;-64
2023/03/24 06:19:26;;;;;;;5.90;4.30;;;14.50;64.30;;;;;;5056238;28;20028;-64
2023/03/24 06:21:52;;;;;;;4.97;3.33;;;14.50;64.20;;;;;;5064192;28;20046;-65
2023/03/24 06:24:18;;;;;;;5.15;3.20;;;14.50;64.40;;;;;;5054443;28;20025;-63
2023/03/24 06:26:44;;;;;;;8.63;4.00;;;14.50;64.60;;;;;;5065031;28;20361;-64
2023/03/24 06:29:11;;;;;;;5.43;3.22;;;14.60;64.60;;;;;;5061095;28;20029;-64
2023/03/24 06:31:38;;;;;;;3.55;2.92;;;14.60;64.40;;;;;;5055431;28;20047;-64
2023/03/24 06:34:04;;;;;;;3.03;2.50;;;14.60;64.50;;;;;;5050824;28;20480;-64
2023/03/24 06:36:30;;;;;;;4.82;2.80;;;14.60;64.50;;;;;;5054494;28;20077;-64
2023/03/24 06:38:55;;;;;;;3.63;2.40;;;14.60;64.40;;;;;;5057813;28;20056;-64
2023/03/24 06:41:22;;;;;;;6.60;3.20;;;14.60;64.50;;;;;;5065853;28;20092;-64
2023/03/24 06:43:48;;;;;;;2.80;2.47;;;14.60;64.50;;;;;;5061110;28;20052;-64
2023/03/24 06:46:14;;;;;;;6.32;2.67;;;14.60;64.70;;;;;;5057029;28;20044;-64
2023/03/24 06:48:40;;;;;;;4.03;2.63;;;14.70;64.90;;;;;;5066061;28;20055;-64
2023/03/24 06:51:06;;;;;;;6.13;2.83;;;14.70;65.00;;;;;;5064122;28;20114;-64
2023/03/24 06:53:32;;;;;;;4.53;2.65;;;14.70;65.10;;;;;;5059785;28;20102;-64
2023/03/24 06:55:58;;;;;;;5.38;2.88;;;14.70;65.30;;;;;;5054741;28;20029;-64
2023/03/24 06:58:23;;;;;;;4.68;2.63;;;14.80;65.70;;;;;;5058879;28;20024;-64
2023/03/24 07:00:49;;;;;;;3.17;2.60;;;14.70;65.80;;;;;;5060058;28;20029;-64
2023/03/24 07:03:16;;;;;;;6.20;3.05;;;14.80;65.70;;;;;;5062725;28;20025;-64
2023/03/24 07:05:44;;;;;;;2.97;2.30;;;14.80;65.90;;;;;;5065849;28;20017;-63
2023/03/24 07:08:10;;;;;;;4.28;2.83;;;14.80;66.10;;;;;;5066767;28;20029;-63
2023/03/24 07:10:38;;;;;;;5.05;3.13;;;14.90;66.30;;;;;;5056970;28;20551;-63
2023/03/24 07:13:05;;;;;;;7.50;3.40;;;14.90;66.60;;;;;;5062643;28;20025;-63
2023/03/24 07:15:32;;;;;;;7.47;3.30;;;14.90;66.40;;;;;;5061172;28;20104;-63
2023/03/24 07:17:57;;;;;;;6.18;4.28;;;15.00;66.50;;;;;;5069155;28;20024;-64
2023/03/24 07:20:23;;;;;;;5.05;3.67;;;15.00;66.70;;;;;;5062687;28;20029;-62
2023/03/24 07:22:49;;;;;;;5.60;3.75;;;15.00;66.70;;;;;;5066982;28;20082;-63
2023/03/24 07:25:18;;;;;;;5.47;3.22;;;15.00;66.70;;;;;;5058481;28;20792;-63
2023/03/24 07:27:45;;;;;;;5.20;3.22;;;15.00;66.60;;;;;;5074939;28;20116;-63
2023/03/24 07:30:12;;;;;;;5.47;3.50;;;15.10;66.50;;;;;;5060044;28;20071;-63
2023/03/24 07:32:38;;;;;;;5.25;3.75;;;15.10;66.60;;;;;;5071932;28;20025;-63
2023/03/24 07:35:06;;;;;;;4.78;3.15;;;15.10;67.50;;;;;;5066071;28;20053;-63
2023/03/24 07:37:32;;;;;;;5.85;3.60;;;15.10;66.90;;;;;;5062551;28;20498;-63
2023/03/24 07:39:57;;;;;;;5.45;3.72;;;15.10;67.00;;;;;;5068696;28;20025;-63
2023/03/24 07:42:24;;;;;;;8.43;3.25;;;15.10;67.20;;;;;;5060895;28;20943;-63
2023/03/24 07:44:50;;;;;;;6.30;3.30;;;15.10;67.40;;;;;;5060512;28;20035;-63
2023/03/24 07:47:17;;;;;;;5.18;3.08;;;15.10;67.50;;;;;;5055790;28;20048;-63
2023/03/24 07:49:42;;;;;;;5.88;3.75;;;15.20;67.70;;;;;;5063519;28;20055;-63
2023/03/24 07:52:08;;;;;;;11.77;6.03;;;15.20;67.70;;;;;;5063173;28;20021;-63
2023/03/24 07:54:34;;;;;;;33.33;18.52;;;15.20;67.40;;;;;;5058850;28;20037;-63
2023/03/24 07:57:00;;;;;;;32.58;17.13;;;15.20;67.40;;;;;;5059401;28;20031;-63
2023/03/24 07:59:26;;;;;;;27.70;16.17;;;15.20;67.50;;;;;;5057146;28;20029;-63
2023/03/24 08:01:52;;;;;;;26.33;15.35;;;15.20;67.60;;;;;;5053282;28;20036;-63
2023/03/24 08:04:18;;;;;;;16.63;10.43;;;15.30;67.80;;;;;;5064374;28;20074;-62
2023/03/24 08:06:44;;;;;;;17.98;10.52;;;15.30;67.80;;;;;;5049359;28;20056;-63
2023/03/24 08:09:10;;;;;;;15.93;10.07;;;15.30;67.80;;;;;;5054041;28;20036;-63
2023/03/24 08:11:36;;;;;;;15.82;8.88;;;15.30;68.00;;;;;;5059963;28;20120;-63
2023/03/24 08:14:02;;;;;;;8.52;5.72;;;15.30;68.10;;;;;;5059512;28;20128;-63
2023/03/24 08:16:28;;;;;;;12.02;5.57;;;15.30;67.90;;;;;;5067337;28;20043;-62
2023/03/24 08:18:57;;;;;;;6.90;4.15;;;15.40;68.00;;;;;;5065216;28;20029;-62
2023/03/24 08:21:23;;;;;;;5.47;3.30;;;15.30;68.00;;;;;;5062641;28;20096;-62
2023/03/24 08:23:49;;;;;;;6.05;3.65;;;15.40;68.10;;;;;;5051650;28;20029;-63
2023/03/24 08:26:15;;;;;;;4.82;3.17;;;15.40;68.10;;;;;;5055626;28;20020;-62
2023/03/24 08:28:41;;;;;;;4.00;2.75;;;15.40;68.10;;;;;;5058474;28;20087;-63
2023/03/24 08:31:07;;;;;;;4.22;2.78;;;15.40;68.20;;;;;;5061729;28;20441;-62
2023/03/24 08:33:33;;;;;;;4.35;2.88;;;15.40;68.20;;;;;;5056278;28;20471;-62
2023/03/24 08:35:59;;;;;;;6.50;2.40;;;15.40;68.40;;;;;;5058889;28;20380;-62
2023/03/24 08:38:32;;;;;;;5.57;2.53;;;15.50;68.50;;;;;;5090659;28;20025;-62
2023/03/24 08:41:05;;;;;;;2.85;2.20;;;15.50;68.40;;;;;;5061070;28;20021;-63
2023/03/24 08:43:32;;;;;;;4.93;3.10;;;15.50;68.60;;;;;;5060587;28;20021;-63
2023/03/24 08:46:00;;;;;;;8.02;3.30;;;15.50;68.70;;;;;;5060689;28;20040;-63
2023/03/24 08:48:27;;;;;;;4.82;2.88;;;15.50;68.80;;;;;;5062337;28;20364;-62
2023/03/24 08:50:53;;;;;;;7.28;3.20;;;15.50;68.80;;;;;;5054460;28;20029;-63
2023/03/24 08:53:20;;;;;;;7.13;3.20;;;15.50;68.80;;;;;;5057505;28;20025;-62
2023/03/24 08:55:46;;;;;;;5.03;3.55;;;15.50;68.80;;;;;;5055497;28;20492;-62
2023/03/24 08:58:14;;;;;;;4.90;3.00;;;15.50;68.90;;;;;;5063290;28;20064;-63
2023/03/24 09:00:41;;;;;;;3.28;2.42;;;15.50;69.10;;;;;;5064407;28;20035;-63
2023/03/24 09:03:12;;;;;;;4.90;2.75;;;15.60;69.20;;;;;;5061917;28;20021;-63
2023/03/24 09:05:38;;;;;;;4.72;2.25;;;15.60;69.30;;;;;;5064936;28;20025;-62
2023/03/24 09:08:04;;;;;;;4.32;2.45;;;15.60;69.10;;;;;;5061871;28;20049;-62
2023/03/24 09:10:29;;;;;;;7.95;2.70;;;15.60;69.20;;;;;;5057867;28;20029;-63
2023/03/24 09:12:55;;;;;;;5.68;3.08;;;15.60;69.20;;;;;;5061536;28;20029;-63
2023/03/24 09:15:20;;;;;;;5.10;2.38;;;15.60;69.20;;;;;;5062343;28;20104;-63
2023/03/24 09:17:46;;;;;;;2.55;2.00;;;15.60;69.30;;;;;;5058078;28;20057;-62
2023/03/24 09:20:14;;;;;;;5.90;2.30;;;15.60;69.30;;;;;;5058499;28;20025;-63
2023/03/24 09:22:42;;;;;;;3.25;2.20;;;15.60;69.50;;;;;;5062289;28;20017;-62
2023/03/24 09:25:10;;;;;;;2.97;2.10;;;15.60;69.70;;;;;;5061615;28;20029;-63
2023/03/24 09:27:36;;;;;;;5.10;3.05;;;15.60;69.70;;;;;;5066383;28;20028;-62
2023/03/24 09:30:02;;;;;;;6.25;3.60;;;15.60;69.80;;;;;;5062249;28;20028;-62
2023/03/24 09:32:28;;;;;;;4.00;2.53;;;15.60;70.10;;;;;;5058542;28;20063;-63
2023/03/24 09:34:54;;;;;;;6.35;3.10;;;15.70;70.30;;;;;;5067422;28;20045;-63
2023/03/24 09:37:20;;;;;;;5.43;3.17;;;15.70;70.10;;;;;;5061929;28;20127;-63
2023/03/24 09:39:45;;;;;;;5.65;3.15;;;15.70;70.00;;;;;;5062276;28;20033;-63
2023/03/24 09:42:21;;;;;;;5.65;3.08;;;15.70;69.90;;;;;;5067723;28;20830;-63
2023/03/24 09:44:55;;;;;;;5.00;3.65;;;15.70;70.40;;;;;;5070310;28;20025;-62
2023/03/24 09:47:33;;;;;;;5.93;3.22;;;15.70;69.90;;;;;;5057809;28;20029;-63
2023/03/24 09:50:07;;;;;;;4.88;3.45;;;15.70;70.10;;;;;;5043017;28;20045;-63
2023/03/24 09:52:35;;;;;;;;;;;15.70;69.80;;;;;;5045222;28;20017;-63
2023/03/24 09:55:01;;;;;;;4.63;2.72;;;15.70;68.90;;;;;;5054517;28;19923;-63
2023/03/24 09:57:35;;;;;;;7.97;3.20;;;15.70;68.70;;;;;;5054710;28;20048;-64
2023/03/24 10:00:22;;;;;;;6.15;3.00;;;15.70;68.80;;;;;;5061756;28;20025;-62
2023/03/24 10:02:50;;;;;;;4.22;2.53;;;15.60;69.10;;;;;;5066037;28;20105;-62
2023/03/24 10:05:44;;;;;;;7.93;3.20;;;15.60;68.90;;;;;;5065888;28;20576;-63
2023/03/24 10:08:14;;;;;;;6.77;3.00;;;15.60;69.80;;;;;;5062419;28;20025;-64
2023/03/24 10:10:53;;;;;;;3.83;2.63;;;15.60;68.90;;;;;;5054458;28;20403;-64
2023/03/24 10:13:51;;;;;;;3.88;2.95;;;15.70;69.30;;;;;;5051472;28;20093;-64
2023/03/24 10:16:45;;;;;;;3.13;2.47;;;15.70;70.90;;;;;;5036814;28;20041;-63
2023/03/24 10:19:53;;;;;;;4.38;2.67;;;15.70;70.60;;;;;;5039264;28;20032;-63
2023/03/24 10:22:28;;;;;;;6.35;2.63;;;15.80;70.80;;;;;;5040455;28;20045;-63
2023/03/24 10:24:53;;;;;;;;;;;15.90;69.80;;;;;;5041698;28;20032;-62
2023/03/24 10:27:38;;;;;;;8.18;2.72;;;16.10;69.40;;;;;;5045521;28;20035;-63
2023/03/24 10:30:19;;;;;;;3.13;2.25;;;16.10;68.70;;;;;;5019137;28;20104;-62
2023/03/24 10:32:45;;;;;;;2.40;2.20;;;16.20;69.20;;;;;;5030271;28;20175;-63
2023/03/24 10:35:28;;;;;;;2.25;1.65;;;16.30;68.60;;;;;;5038404;28;20053;-63
2023/03/24 10:37:57;;;;;;;3.10;1.40;;;16.30;68.50;;;;;;5045752;28;20040;-64
2023/03/24 10:40:29;;;;;;;5.13;1.60;;;16.40;68.30;;;;;;5047483;28;20038;-63
2023/03/24 10:42:57;;;;;;;3.45;1.23;;;16.50;68.20;;;;;;5044828;28;20028;-64
2023/03/24 10:45:32;;;;;;;1.50;1.20;;;16.60;67.80;;;;;;5045846;28;20029;-65
2023/03/24 10:48:01;;;;;;;1.55;1.20;;;16.70;67.60;;;;;;5045315;28;20027;-64
2023/03/24 10:50:30;;;;;;;2.65;1.30;;;16.80;67.80;;;;;;5037977;28;20043;-64
2023/03/24 10:52:56;;;;;;;1.80;1.15;;;16.90;67.50;;;;;;5053109;28;20041;-63
2023/03/24 10:55:37;;;;;;;1.63;1.30;;;17.00;67.30;;;;;;5058259;28;20025;-64
2023/03/24 10:58:32;;;;;;;4.00;1.38;;;17.20;66.80;;;;;;5060716;28;20086;-64
2023/03/24 11:00:59;;;;;;;2.33;1.40;;;17.20;66.30;;;;;;5054916;28;20095;-64
2023/03/24 11:03:31;;;;;;;2.63;1.50;;;17.30;66.00;;;;;;5064513;28;20077;-64
2023/03/24 11:06:02;;;;;;;1.60;1.42;;;17.40;65.60;;;;;;5070696;28;20013;-63
2023/03/24 11:08:30;;;;;;;3.30;1.88;;;17.40;65.60;;;;;;5067571;28;20035;-63
2023/03/24 11:10:56;;;;;;;2.67;1.52;;;17.40;65.70;;;;;;5067714;28;20053;-65
2023/03/24 11:13:21;;;;;;;1.70;1.60;;;17.50;65.30;;;;;;5070556;28;20028;-63
2023/03/24 11:16:10;;;;;;;3.05;1.70;;;17.50;65.80;;;;;;5062058;28;20045;-63
2023/03/24 11:18:37;;;;;;;3.22;1.75;;;17.60;65.20;;;;;;5065572;28;20024;-64
2023/03/24 11:21:05;;;;;;;3.85;2.00;;;17.60;65.00;;;;;;5067672;28;20024;-65
2023/03/24 11:23:39;;;;;;;2.28;1.80;;;17.60;64.90;;;;;;5061776;28;20020;-64
2023/03/24 11:26:27;;;;;;;1.70;1.60;;;17.60;65.00;;;;;;5061646;28;20089;-63
2023/03/24 11:28:57;;;;;;;2.72;1.85;;;17.50;64.90;;;;;;5055649;28;20052;-64
2023/03/24 11:31:29;;;;;;;2.92;1.88;;;17.50;64.40;;;;;;5061081;28;20033;-63
2023/03/24 11:34:15;;;;;;;2.40;1.77;;;17.60;64.30;;;;;;5066333;28;20021;-63
2023/03/24 11:37:02;;;;;;;3.00;1.73;;;17.50;64.20;;;;;;5062341;28;20024;-65
2023/03/24 11:39:33;;;;;;;2.38;1.65;;;17.50;63.90;;;;;;5059832;28;20030;-63
2023/03/24 11:42:01;;;;;;;1.85;1.58;;;17.50;64.30;;;;;;5057314;28;20021;-63
2023/03/24 11:44:31;;;;;;;1.63;1.52;;;17.50;64.40;;;;;;5058940;28;20031;-63
2023/03/24 11:47:02;;;;;;;3.63;1.50;;;17.60;64.30;;;;;;5055717;28;20025;-63
2023/03/24 11:49:41;;;;;;;2.53;1.60;;;17.60;64.40;;;;;;5053793;28;20032;-63
2023/03/24 11:52:34;;;;;;;5.80;1.80;;;17.70;64.50;;;;;;5058276;28;20032;-63
2023/03/24 11:55:00;;;;;;;2.35;1.40;;;17.70;64.30;;;;;;5061476;28;20065;-63
2023/03/24 11:57:50;;;;;;;3.45;1.48;;;17.80;64.00;;;;;;5066972;28;20053;-64
2023/03/24 12:00:39;;;;;;;1.98;1.52;;;17.80;63.60;;;;;;5060044;28;20021;-63
2023/03/24 12:03:37;;;;;;;2.67;1.20;;;17.90;63.40;;;;;;5063006;28;20032;-64
2023/03/24 12:06:31;;;;;;;2.88;1.65;;;17.90;63.80;;;;;;5060420;28;20032;-63
2023/03/24 12:09:20;;;;;;;3.42;1.42;;;17.90;62.70;;;;;;5030828;28;20049;-64
2023/03/24 12:12:14;;;;;;;4.57;1.60;;;18.00;63.30;;;;;;5032935;28;20465;-65
2023/03/24 12:14:40;;;;;;;4.43;1.40;;;18.10;63.30;;;;;;5032239;28;20064;-62
2023/03/24 12:17:15;;;;;;;9.68;4.63;;;18.30;63.40;;;;;;5027309;28;20030;-63
2023/03/24 12:19:40;;;;;;;4.50;2.30;;;18.40;62.50;;;;;;5015268;28;20638;-64
2023/03/24 12:22:09;;;;;;;2.72;1.73;;;18.50;62.40;;;;;;5033449;28;20071;-64
2023/03/24 12:24:45;;;;;;;3.33;2.00;;;18.50;61.90;;;;;;5035649;28;20033;-66
2023/03/24 12:27:36;;;;;;;1.85;1.05;;;18.50;61.70;;;;;;5030767;28;20029;-63
2023/03/24 12:30:12;;;;;;;1.25;1.00;;;18.60;61.60;;;;;;5031846;28;20513;-64
2023/03/24 12:32:41;;;;;;;1.88;0.90;;;18.70;61.20;;;;;;5033162;28;20047;-64
2023/03/24 12:36:04;;;;;;;3.45;1.10;;;18.80;61.00;;;;;;5029024;28;20055;-64
2023/03/24 12:38:44;;;;;;;2.72;1.67;;;18.80;59.20;;;;;;5013263;28;20044;-63
2023/03/24 12:41:21;;;;;;;4.13;1.27;;;18.90;59.80;;;;;;5015324;28;20389;-63
2023/03/24 12:44:18;;;;;;;2.65;1.00;;;18.90;59.60;;;;;;5016070;28;20045;-63
2023/03/24 12:47:08;;;;;;;0.93;0.70;;;18.90;59.40;;;;;;5011617;28;20038;-63
2023/03/24 12:50:11;;;;;;;2.83;0.93;;;18.90;59.20;;;;;;5016644;28;20085;-65
2023/03/24 12:53:00;;;;;;;2.05;1.13;;;18.90;58.90;;;;;;5010024;28;20034;-64
2023/03/24 12:55:31;;;;;;;1.10;1.00;;;18.90;58.00;;;;;;4996767;28;20113;-63
2023/03/24 12:58:06;;;;;;;1.67;0.90;;;18.80;58.80;;;;;;5007477;28;21488;-63
2023/03/24 13:00:53;;;;;;;3.90;1.20;;;18.80;58.60;;;;;;5011799;28;20034;-65
2023/03/24 13:03:29;;;;;;;1.15;0.82;;;18.70;58.30;;;;;;5014092;28;20106;-63
2023/03/24 13:05:58;;;;;;;7.00;1.00;;;18.70;58.60;;;;;;5009277;28;20023;-63
2023/03/24 13:08:31;;;;;;;5.90;1.00;;;18.60;58.70;;;;;;5022482;28;20069;-63
2023/03/24 13:11:05;;;;;;;4.15;1.00;;;18.60;58.50;;;;;;5061949;28;20096;-64